Flight Track Log - Related Links

Times and Time Zones

All times are in EDT time to prevent confusion due to time zone crossing. See the N23WJ flight status page for this flight to view local times or setup timezone preferences in your user account.

Time Position Orientation Groundspeed Altitude Reporting Facility
EDT Latitude Longitude Course Direction KTS MPH feet Rate Location/Type
Thu 04:13:17 PM 27.4822 -80.2419 325° Northwest 257 296 2,900  Level Miami Center
Thu 04:14:17 PM 27.5000 -80.1908 69° East 281 323 2,900 1,000 Level Miami Center
Thu 04:15:17 PM 27.5556 -80.2300 328° Northwest 265 305 4,900 1,650 Climbing Miami Center
Thu 04:16:00 PM 27.7836 -80.6368 325° Northwest  Level FlightAware Approximate
Thu 04:16:17 PM 27.5836 -80.2753 305° West 198 228 6,200  Level Miami Center
Thu 04:17:17 PM 27.6183 -80.3139 315° West 181 208 7,300 1,200 Climbing Miami Center
Thu 04:18:17 PM 27.6592 -80.3550 318° Northwest 197 227 8,600 1,400 Climbing Miami Center
Thu 04:19:17 PM 27.7017 -80.4008 316° Northwest 197 227 10,100 1,300 Climbing Miami Center
Thu 04:20:17 PM 27.7403 -80.4442 315° West 197 227 11,200 1,050 Climbing Miami Center
Thu 04:21:17 PM 27.7808 -80.4925 313° West 203 234 12,200 1,150 Climbing Miami Center
Thu 04:22:17 PM 27.8194 -80.5336 317° Northwest 203 234 13,500 1,250 Climbing Miami Center
Thu 04:23:17 PM 27.8622 -80.5794 317° Northwest 203 234 14,700 1,350 Climbing Miami Center
Thu 04:24:17 PM 27.9089 -80.6303 316° Northwest 208 239 16,200 1,250 Climbing Miami Center
Thu 04:25:17 PM 27.9494 -80.6764 315° West 208 239 17,200 1,000 Climbing Miami Center
Thu 04:26:17 PM 27.9858 -80.7200 313° West 213 245 18,200 1,000 Climbing Miami Center
Thu 04:27:17 PM 28.0283 -80.7661 316° Northwest 213 245 19,200 1,100 Climbing Miami Center
Thu 04:28:17 PM 28.0708 -80.8122 316° Northwest 213 245 20,400 1,200 Climbing Miami Center
Thu 04:29:17 PM 28.1136 -80.8561 318° Northwest 213 245 21,600 1,050 Climbing Miami Center
Thu 04:30:17 PM 28.1539 -80.9022 315° West 213 245 22,500 900 Climbing Miami Center
Thu 04:31:17 PM 28.1944 -80.9461 316° Northwest 213 245 23,400 850 Climbing Miami Center
Thu 04:32:17 PM 28.2350 -80.9875 318° Northwest 207 238 24,200 850 Climbing Miami Center
Thu 04:33:17 PM 28.2753 -81.0386 312° West 201 231 25,100 750 Climbing Miami Center
Thu 04:34:17 PM 28.3178 -81.0872 315° West 201 231 25,700 650 Climbing Miami Center
Thu 04:35:17 PM 28.3600 -81.1336 316° Northwest 201 231 26,400 650 Climbing Miami Center
Thu 04:36:17 PM 28.4025 -81.1800 316° Northwest 201 231 27,000 300 Climbing Miami Center
Thu 04:37:17 PM 28.4469 -81.2292 316° Northwest 206 237 27,000  Level Miami Center
Thu 04:38:11 PM 28.4925 -81.2794 316° Northwest 219 252 27,000  Level Jacksonville Center
Thu 04:39:11 PM 28.5411 -81.3353 315° West 232 267 27,000  Level Jacksonville Center
Thu 04:40:11 PM 28.6061 -81.3581 343° North 237 273 27,000  Level Jacksonville Center
Thu 04:41:11 PM 28.6750 -81.3522 North 232 267 27,000  Level Jacksonville Center
Thu 04:42:11 PM 28.7458 -81.3581 356° North 244 281 27,000  Level Jacksonville Center
Thu 04:43:11 PM 28.8008 -81.4094 321° Northwest 236 272 27,000  Level Jacksonville Center
Thu 04:44:11 PM 28.8556 -81.4631 319° Northwest 249 287 27,000  Level Jacksonville Center
Thu 04:45:11 PM 28.9125 -81.5144 322° Northwest 259 298 27,000  Level Jacksonville Center
Thu 04:46:11 PM 28.9694 -81.5683 320° Northwest 259 298 27,000  Level Jacksonville Center
Thu 04:47:11 PM 29.0244 -81.6197 321° Northwest 259 298 27,000  Level Jacksonville Center
Thu 04:48:11 PM 29.0769 -81.6714 319° Northwest 260 299 27,000  Level Jacksonville Center
Thu 04:49:11 PM 29.1339 -81.7253 320° Northwest 260 299 27,000  Level Jacksonville Center
Thu 04:50:11 PM 29.1822 -81.7700 321° Northwest 260 299 27,000  Level Jacksonville Center
Thu 04:51:11 PM 29.2369 -81.8289 317° Northwest 267 307 27,000  Level Jacksonville Center
Thu 04:52:11 PM 29.2897 -81.8831 318° Northwest 267 307 27,000  Level Jacksonville Center
Thu 04:53:11 PM 29.3444 -81.9350 320° Northwest 261 300 27,000  Level Jacksonville Center
Thu 04:54:11 PM 29.3989 -81.9892 319° Northwest 261 300 27,000  Level Jacksonville Center
Thu 04:55:11 PM 29.4517 -82.0389 321° Northwest 261 300 27,000  Level Jacksonville Center
Thu 04:56:11 PM 29.5061 -82.0908 320° Northwest 256 295 27,000  Level Jacksonville Center
Thu 04:57:11 PM 29.5628 -82.1428 321° Northwest 261 300 27,000  Level Jacksonville Center
Thu 04:58:11 PM 29.6256 -82.1758 335° Northwest 261 300 27,000  Level Jacksonville Center
Thu 04:59:11 PM 29.6928 -82.2136 334° Northwest 256 295 27,000  Level Jacksonville Center
Thu 05:00:11 PM 29.7556 -82.2492 334° Northwest 256 295 27,000  Level Jacksonville Center
Thu 05:01:11 PM 29.8203 -82.2822 336° Northwest 256 295 27,000  Level Jacksonville Center
Thu 05:02:11 PM 29.8853 -82.3128 338° Northwest 251 289 27,000  Level Jacksonville Center
Thu 05:03:11 PM 29.9542 -82.3436 339° North 251 289 27,000  Level Jacksonville Center
Thu 05:04:11 PM 30.0128 -82.3625 344° North 246 283 27,000  Level Jacksonville Center
Thu 05:05:11 PM 30.0775 -82.3933 338° Northwest 246 283 27,000  Level Jacksonville Center
Thu 05:06:11 PM 30.1486 -82.4194 342° North 251 289 27,000  Level Jacksonville Center
Thu 05:07:11 PM 30.2156 -82.4456 341° North 251 289 27,000  Level Jacksonville Center
Thu 05:08:11 PM 30.2806 -82.4717 341° North 246 283 27,000  Level Jacksonville Center
Thu 05:09:11 PM 30.3453 -82.4931 344° North 246 283 27,000  Level Jacksonville Center
Thu 05:10:11 PM 30.4100 -82.5192 341° North 246 283 27,000  Level Jacksonville Center
Thu 05:11:11 PM 30.4769 -82.5456 341° North 246 283 27,000  Level Jacksonville Center
Thu 05:12:11 PM 30.5439 -82.5622 348° North 246 283 27,000  Level Jacksonville Center
Thu 05:13:11 PM 30.6128 -82.5692 355° North 241 277 27,000  Level Jacksonville Center
Thu 05:14:11 PM 30.6794 -82.5761 355° North 241 277 27,000  Level Jacksonville Center
Thu 05:15:11 PM 30.7464 -82.5881 351° North 241 277 27,000  Level Jacksonville Center
Thu 05:16:11 PM 30.8111 -82.5975 353° North 236 272 27,000  Level Jacksonville Center
Thu 05:17:11 PM 30.8822 -82.6044 355° North 236 272 27,000  Level Jacksonville Center
Thu 05:18:11 PM 30.9489 -82.6139 353° North 236 272 27,000  Level Jacksonville Center
Thu 05:19:11 PM 31.0158 -82.6211 355° North 236 272 27,000  Level Jacksonville Center
Thu 05:20:11 PM 31.0825 -82.6306 353° North 236 272 27,000  Level Jacksonville Center
Thu 05:21:11 PM 31.1494 -82.6425 351° North 236 272 27,000  Level Jacksonville Center
Thu 05:22:11 PM 31.2164 -82.6472 357° North 236 272 27,000  Level Jacksonville Center
Thu 05:23:11 PM 31.2831 -82.6544 355° North 236 272 27,000  Level Jacksonville Center
Thu 05:24:11 PM 31.3519 -82.6639 353° North 236 272 27,000  Level Jacksonville Center
Thu 05:25:11 PM 31.4189 -82.6736 353° North 236 272 27,000 -50 Level Jacksonville Center
Thu 05:26:11 PM 31.4836 -82.6831 353° North 236 272 26,900 -550 Descending Jacksonville Center
Thu 05:27:11 PM 31.5589 -82.6903 355° North 243 280 25,900 -800 Descending Jacksonville Center
Thu 05:28:11 PM 31.6339 -82.7022 352° North 255 293 25,300 -450 Descending Jacksonville Center
Thu 05:29:11 PM 31.7069 -82.7119 354° North 261 300 25,000 -200 Descending Jacksonville Center
Thu 05:30:11 PM 31.7803 -82.7214 354° North 261 300 24,900 -500 Descending Jacksonville Center
Thu 05:31:11 PM 31.8575 -82.7286 355° North 261 300 24,000 -550 Descending Jacksonville Center
Thu 05:32:11 PM 31.9325 -82.7383 354° North 267 307 23,800 -500 Descending Jacksonville Center
Thu 05:33:11 PM 32.0078 -82.7506 352° North 272 313 23,000 -655 Descending Jacksonville Center
Thu 05:34:56 PM 32.1469 -82.7706 353° North 275 316 22,000 -364 Descending Atlanta Center
Thu 05:35:56 PM 32.2203 -82.7842 351° North 270 311 22,000  Level Atlanta Center
Thu 05:36:56 PM 32.2933 -82.7956 352° North 270 311 22,000  Level Atlanta Center
Thu 05:37:56 PM 32.3625 -82.8044 354° North 260 299 22,000 50 Level Atlanta Center
Thu 05:38:56 PM 32.4294 -82.8256 345° North 250 288 22,100 -700 Climbing Atlanta Center
Thu 05:39:56 PM 32.4883 -82.8789 323° Northwest 242 278 20,600 -1,150 Descending Atlanta Center
Thu 05:40:56 PM 32.5472 -82.9300 324° Northwest 256 295 19,800 -900 Descending Atlanta Center
Thu 05:41:56 PM 32.6125 -82.9858 324° Northwest 275 316 18,800 -1,050 Descending Atlanta Center
Thu 05:42:56 PM 32.6756 -83.0419 323° Northwest 275 316 17,700 -1,050 Descending Atlanta Center
Thu 05:43:56 PM 32.7344 -83.0906 325° Northwest 275 316 16,700 -900 Descending Atlanta Center
Thu 05:44:56 PM 32.7847 -83.1369 322° Northwest 275 316 15,900 -950 Descending Atlanta Center
Thu 05:45:56 PM 32.8561 -83.1981 324° Northwest 269 310 14,800 -1,050 Descending Atlanta Center
Thu 05:46:56 PM 32.9131 -83.2469 324° Northwest 269 310 13,800 -1,000 Descending Atlanta Center
Thu 05:47:56 PM 32.9758 -83.3058 322° Northwest 274 315 12,800 -1,000 Descending Atlanta Center
Thu 05:48:56 PM 33.0325 -83.3550 324° Northwest 274 315 11,800 -1,000 Descending Atlanta Center
Thu 05:49:56 PM 33.0914 -83.4067 324° Northwest 264 304 10,800 -1,000 Descending Atlanta Center
Thu 05:50:56 PM 33.1436 -83.4533 323° Northwest 251 289 9,800 -849 Descending Atlanta Center
Thu 05:53:21 PM 33.2667 -83.5667 322° Northwest 229 264 7,900 -543 Descending Atlanta TRACON
Thu 05:54:26 PM 33.3333 -83.6167 328° Northwest 217 250 7,900 48 Level Atlanta TRACON
Thu 05:55:26 PM 33.3667 -83.6500 320° Northwest 210 242 8,000 -99 Climbing Atlanta TRACON
Thu 05:56:27 PM 33.4167 -83.7000 320° Northwest 215 247 7,700 -678 Descending Atlanta TRACON
Thu 05:57:21 PM 33.4833 -83.7000 360° North 233 268 6,700 -895 Descending Atlanta TRACON
Thu 05:58:21 PM 33.5333 -83.7167 344° North 238 274 6,000 -350 Descending Atlanta TRACON
Thu 05:59:21 PM 33.6000 -83.7333 348° North 222 255 6,000  Level Atlanta TRACON
Thu 06:00:26 PM 33.6667 -83.7333 360° North 215 247 6,000  Level Atlanta TRACON
Thu 06:01:21 PM 33.7167 -83.7500 345° North 212 244 6,000  Level Atlanta TRACON
Thu 06:02:21 PM 33.7833 -83.7667 348° North 218 251 6,000 -250 Level Atlanta TRACON
Thu 06:03:21 PM 33.8167 -83.8000 320° Northwest 201 231 5,500 -857 Descending Atlanta TRACON
Thu 06:04:27 PM 33.8500 -83.8667 301° West 202 232 4,200 -687 Descending Atlanta TRACON
Thu 06:05:32 PM 33.8667 -83.9333 287° West 190 219 4,000 -432 Descending Atlanta TRACON
Thu 06:06:32 PM 33.8833 -83.9833 292° West 194 223 3,300 -574 Descending Atlanta TRACON
Thu 06:07:27 PM 33.9000 -84.0500 287° West 193 222 2,900 -209 Descending Atlanta TRACON
Thu 06:08:27 PM 33.9333 -84.1000 309° West 169 194 2,900 53 Level Atlanta TRACON
Thu 06:09:21 PM 33.9500 -84.1333 301° West 167 192 3,000  Climbing Atlanta TRACON
Thu 06:10:27 PM 33.9667 -84.2000 287° West 169 194 2,900 -48 Descending Atlanta TRACON
Thu 06:11:27 PM 33.9500 -84.2500 248° West 150 173 2,900 -450 Level Atlanta TRACON
Thu 06:12:27 PM 33.9333 -84.2833 239° Southwest 123 142 2,000 -750 Descending Atlanta TRACON
Thu 06:13:27 PM 33.9000 -84.2833 180° South 121 139 1,400 -600 Descending Atlanta TRACON
Thu 06:15:00 PM 33.8667 -84.3000 220° Southwest  Level FlightAware Approximate
Thu 06:22:00 PM 33.8756 -84.3020 220° Southwest  Level Estimated

Login

Don't have an account? Register now (free) for customized features, flight alerts, and more!